createdAt,value
2019-01-25T00:00:48.467Z,80.90
2019-01-25T00:01:48.437Z,85.70
2019-01-25T00:02:48.411Z,81.70
2019-01-25T00:03:48.374Z,82.10
2019-01-25T00:04:48.349Z,78.40
2019-01-25T00:05:48.320Z,79.20
2019-01-25T00:06:48.290Z,83.20
2019-01-25T00:07:48.262Z,77.60
2019-01-25T00:08:48.233Z,81.60
2019-01-25T00:09:48.210Z,82.10
2019-01-25T00:10:48.188Z,78.00
2019-01-25T00:11:48.147Z,76.30
2019-01-25T00:12:48.118Z,80.70
2019-01-25T00:13:48.092Z,80.40
2019-01-25T00:14:48.062Z,77.50
2019-01-25T00:15:48.034Z,86.30
2019-01-25T00:16:48.006Z,82.70
2019-01-25T00:17:47.976Z,77.60
2019-01-25T00:18:47.949Z,82.10
2019-01-25T00:19:47.927Z,82.20
2019-01-25T00:20:47.893Z,79.20
2019-01-25T00:21:47.861Z,78.90
2019-01-25T00:22:47.839Z,80.40
2019-01-25T00:23:47.817Z,84.90
2019-01-25T00:24:47.778Z,82.10
2019-01-25T00:25:47.749Z,79.20
2019-01-25T00:26:47.720Z,84.00
2019-01-25T00:27:47.692Z,84.30
2019-01-25T00:28:47.739Z,82.80
2019-01-25T00:29:47.638Z,80.50
2019-01-25T00:30:47.612Z,85.80
2019-01-25T00:31:47.585Z,80.70
2019-01-25T00:32:47.551Z,78.30
2019-01-25T00:33:47.521Z,82.50
2019-01-25T00:34:47.493Z,81.00
2019-01-25T00:35:47.466Z,83.10
2019-01-25T00:36:47.445Z,79.40
2019-01-25T00:37:47.408Z,83.50
2019-01-25T00:38:47.378Z,80.20
2019-01-25T00:39:47.354Z,80.30
2019-01-25T00:40:47.326Z,81.00
2019-01-25T00:41:47.292Z,76.70
2019-01-25T00:42:47.264Z,77.60
2019-01-25T00:43:47.236Z,79.90
2019-01-25T00:44:47.206Z,79.70
2019-01-25T00:45:47.180Z,86.10
2019-01-25T00:46:47.150Z,79.20
2019-01-25T00:47:47.123Z,79.60
2019-01-25T00:48:47.096Z,80.70
2019-01-25T00:49:47.066Z,81.30
2019-01-25T00:50:47.040Z,79.70
2019-01-25T00:51:47.012Z,81.40
2019-01-25T00:52:46.981Z,78.20
2019-01-25T00:53:46.959Z,80.60
2019-01-25T00:54:46.926Z,80.30
2019-01-25T00:55:46.895Z,77.80
2019-01-25T00:56:46.873Z,78.70
2019-01-25T00:57:46.838Z,81.00
2019-01-25T00:58:46.813Z,75.80
2019-01-25T00:59:46.785Z,79.10
2019-01-25T01:00:46.757Z,78.60
2019-01-25T01:01:46.729Z,75.60
2019-01-25T01:02:46.696Z,81.80
2019-01-25T01:03:46.683Z,81.30
2019-01-25T01:04:46.647Z,80.80
2019-01-25T01:05:46.614Z,78.70
2019-01-25T01:06:46.581Z,78.00
2019-01-25T01:07:46.552Z,79.20
2019-01-25T01:08:46.524Z,80.00
2019-01-25T01:09:46.495Z,77.50
2019-01-25T01:10:46.473Z,75.00
2019-01-25T01:11:46.440Z,79.70
2019-01-25T01:12:46.414Z,84.20
2019-01-25T01:13:46.380Z,74.20
2019-01-25T01:14:46.353Z,80.30
2019-01-25T01:15:46.325Z,79.80
2019-01-25T01:16:46.297Z,77.60
2019-01-25T01:17:46.272Z,80.90
2019-01-25T01:18:46.245Z,78.60
2019-01-25T01:19:46.209Z,79.00
2019-01-25T01:20:46.187Z,76.70
2019-01-25T01:21:46.154Z,79.40
2019-01-25T01:22:46.128Z,77.40
2019-01-25T01:23:46.095Z,80.00
2019-01-25T01:24:46.068Z,80.90
2019-01-25T01:25:46.038Z,78.30
2019-01-25T01:26:46.009Z,80.20
2019-01-25T01:27:45.983Z,79.70
2019-01-25T01:28:45.954Z,82.20
2019-01-25T01:29:45.927Z,79.40
2019-01-25T01:30:45.895Z,79.20
2019-01-25T01:31:45.870Z,79.70
2019-01-25T01:32:45.841Z,78.20
2019-01-25T01:33:45.810Z,73.90
2019-01-25T01:34:45.782Z,73.80
2019-01-25T01:35:45.756Z,79.40
2019-01-25T01:36:45.726Z,82.20
2019-01-25T01:37:45.697Z,83.00
2019-01-25T01:38:45.675Z,85.80
2019-01-25T01:39:45.642Z,79.20
2019-01-25T01:40:45.612Z,81.00
2019-01-25T01:41:45.583Z,82.50
2019-01-25T01:42:45.553Z,79.50
2019-01-25T01:43:45.525Z,78.40
2019-01-25T01:44:45.506Z,77.80
2019-01-25T01:45:45.468Z,82.00
2019-01-25T01:46:45.440Z,83.80
2019-01-25T01:47:45.411Z,74.90
2019-01-25T01:48:45.386Z,82.50
2019-01-25T01:49:45.355Z,79.50
2019-01-25T01:50:45.326Z,80.90
2019-01-25T01:51:45.297Z,77.60
2019-01-25T01:52:45.268Z,81.80
2019-01-25T01:53:45.244Z,81.70
2019-01-25T01:54:45.213Z,79.20
2019-01-25T01:55:45.184Z,80.20
2019-01-25T01:56:45.154Z,81.50
2019-01-25T01:57:45.135Z,81.40
2019-01-25T01:58:45.097Z,81.30
2019-01-25T01:59:45.079Z,74.80
2019-01-25T02:00:45.041Z,81.70
2019-01-25T02:01:45.019Z,83.40
2019-01-25T02:02:44.985Z,78.50
2019-01-25T02:03:44.956Z,77.70
2019-01-25T02:04:44.927Z,77.70
2019-01-25T02:05:44.899Z,79.10
2019-01-25T02:06:44.869Z,82.50
2019-01-25T02:07:44.842Z,82.60
2019-01-25T02:08:44.814Z,82.70
2019-01-25T02:09:44.784Z,77.50
2019-01-25T02:10:44.757Z,80.30
2019-01-25T02:11:44.740Z,81.70
2019-01-25T02:12:44.700Z,84.70
2019-01-25T02:13:44.673Z,75.40
2019-01-25T02:14:44.642Z,79.00
2019-01-25T02:15:44.615Z,85.30
2019-01-25T02:16:44.587Z,76.00
2019-01-25T02:17:44.565Z,80.60
2019-01-25T02:18:44.531Z,76.40
2019-01-25T02:19:44.508Z,77.90
2019-01-25T02:20:44.478Z,84.10
2019-01-25T02:21:44.451Z,82.80
2019-01-25T02:22:44.415Z,78.10
2019-01-25T02:23:44.399Z,81.40
2019-01-25T02:24:44.361Z,78.00
2019-01-25T02:25:44.330Z,79.70
2019-01-25T02:26:44.303Z,77.30
2019-01-25T02:27:44.279Z,80.80
2019-01-25T02:28:44.248Z,77.30
2019-01-25T02:29:44.224Z,79.80
2019-01-25T02:30:44.185Z,78.10
2019-01-25T02:31:44.159Z,79.60
2019-01-25T02:32:44.147Z,84.90
2019-01-25T02:33:44.101Z,78.30
2019-01-25T02:34:44.070Z,78.00
2019-01-25T02:35:44.049Z,85.00
2019-01-25T02:36:44.021Z,82.30
2019-01-25T02:37:43.988Z,81.00
2019-01-25T02:38:43.958Z,81.30
2019-01-25T02:39:43.932Z,82.60
2019-01-25T02:40:43.903Z,79.50
2019-01-25T02:41:43.877Z,77.20
2019-01-25T02:42:43.847Z,79.90
2019-01-25T02:43:43.821Z,75.20
2019-01-25T02:44:43.793Z,80.60
2019-01-25T02:45:43.759Z,80.90
2019-01-25T02:46:43.737Z,81.70
2019-01-25T02:47:43.703Z,81.50
2019-01-25T02:48:43.676Z,84.50
2019-01-25T02:49:43.646Z,82.60
2019-01-25T02:50:43.632Z,80.40
2019-01-25T02:51:43.590Z,75.80
2019-01-25T02:52:43.560Z,80.80
2019-01-25T02:53:43.531Z,76.90
2019-01-25T02:54:43.507Z,84.90
2019-01-25T02:55:43.475Z,82.80
2019-01-25T02:56:43.450Z,86.60
2019-01-25T02:57:43.418Z,83.70
2019-01-25T02:58:43.389Z,87.80
2019-01-25T02:59:43.370Z,83.80
2019-01-25T03:00:43.332Z,80.10
2019-01-25T03:01:43.305Z,81.70
2019-01-25T03:02:43.282Z,79.40
2019-01-25T03:03:43.251Z,82.00
2019-01-25T03:04:43.218Z,81.90
2019-01-25T03:05:43.191Z,82.30
2019-01-25T03:06:43.159Z,84.00
2019-01-25T03:07:43.132Z,87.50
2019-01-25T03:08:43.106Z,82.50
2019-01-25T03:09:43.075Z,85.00
2019-01-25T03:10:47.130Z,82.80
2019-01-25T03:11:43.034Z,84.00
2019-01-25T03:12:42.992Z,82.80
2019-01-25T03:13:42.960Z,85.30
2019-01-25T03:14:42.931Z,85.60
2019-01-25T03:15:42.908Z,90.60
2019-01-25T03:16:42.875Z,86.60
2019-01-25T03:17:42.848Z,93.40
2019-01-25T03:18:42.823Z,90.10
2019-01-25T03:19:42.790Z,93.70
2019-01-25T03:20:42.768Z,85.60
2019-01-25T03:21:42.786Z,93.00
2019-01-25T03:22:42.705Z,90.20
2019-01-25T03:23:42.678Z,85.30
2019-01-25T03:24:42.648Z,87.60
2019-01-25T03:25:42.621Z,89.10
2019-01-25T03:26:42.591Z,86.40
2019-01-25T03:27:42.564Z,88.20
2019-01-25T03:28:42.537Z,89.30
2019-01-25T03:29:42.511Z,87.60
2019-01-25T03:30:42.479Z,85.70
2019-01-25T03:31:42.461Z,88.50
2019-01-25T03:32:42.428Z,89.60
2019-01-25T03:33:42.392Z,86.70
2019-01-25T03:34:42.369Z,90.00
2019-01-25T03:35:42.334Z,90.30
2019-01-25T03:36:42.309Z,91.20
2019-01-25T03:37:42.278Z,87.30
2019-01-25T03:38:42.256Z,92.30
2019-01-25T03:39:42.228Z,92.30
2019-01-25T03:40:42.211Z,92.20
2019-01-25T03:41:42.166Z,94.90
2019-01-25T03:42:42.137Z,99.90
2019-01-25T03:43:42.115Z,98.00
2019-01-25T03:44:42.079Z,99.70
2019-01-25T03:45:42.053Z,100.50
2019-01-25T03:46:42.026Z,98.50
2019-01-25T03:47:41.995Z,103.40
2019-01-25T03:48:41.967Z,103.80
2019-01-25T03:49:41.944Z,97.60
2019-01-25T03:50:41.910Z,100.90
2019-01-25T03:51:41.886Z,98.80
2019-01-25T03:52:41.855Z,101.30
2019-01-25T03:53:41.823Z,98.90
2019-01-25T03:54:41.794Z,96.10
2019-01-25T03:55:41.769Z,97.20
2019-01-25T03:56:41.740Z,95.70
2019-01-25T03:57:41.712Z,99.50
2019-01-25T03:58:41.690Z,101.90
2019-01-25T03:59:41.656Z,103.50
2019-01-25T04:00:41.629Z,103.70
2019-01-25T04:01:41.595Z,100.70
2019-01-25T04:02:41.567Z,98.40
2019-01-25T04:03:41.541Z,100.80
2019-01-25T04:04:41.512Z,104.40
2019-01-25T04:05:41.483Z,105.70
2019-01-25T04:06:41.453Z,101.30
2019-01-25T04:07:41.426Z,101.20
2019-01-25T04:08:41.400Z,105.70
2019-01-25T04:09:41.378Z,103.20
2019-01-25T04:10:41.337Z,100.20
2019-01-25T04:11:41.316Z,101.60
2019-01-25T04:12:41.283Z,105.10
2019-01-25T04:13:41.254Z,98.60
2019-01-25T04:14:41.228Z,102.50
2019-01-25T04:15:41.196Z,98.80
2019-01-25T04:16:41.169Z,98.70
2019-01-25T04:17:41.139Z,102.90
2019-01-25T04:18:41.111Z,101.00
2019-01-25T04:19:41.084Z,95.20
2019-01-25T04:20:41.055Z,95.90
2019-01-25T04:21:41.024Z,94.50
2019-01-25T04:22:40.997Z,91.30
2019-01-25T04:23:40.969Z,84.80
2019-01-25T04:24:40.941Z,80.50
2019-01-25T04:25:40.912Z,79.70
2019-01-25T04:26:40.880Z,79.70
2019-01-25T04:27:40.852Z,78.50
2019-01-25T04:28:40.824Z,79.80
2019-01-25T04:29:40.795Z,78.70
2019-01-25T04:30:40.780Z,75.60
2019-01-25T04:31:40.738Z,74.00
2019-01-25T04:32:40.712Z,71.80
2019-01-25T04:33:40.680Z,73.70
2019-01-25T04:34:40.655Z,76.40
2019-01-25T04:35:40.662Z,74.10
2019-01-25T04:36:40.594Z,74.60
2019-01-25T04:37:40.568Z,79.50
2019-01-25T04:38:40.541Z,79.20
2019-01-25T04:39:40.510Z,80.40
2019-01-25T04:40:40.485Z,80.90
2019-01-25T04:41:40.454Z,79.70
2019-01-25T04:42:40.423Z,77.30
2019-01-25T04:43:40.398Z,71.30
2019-01-25T04:44:40.367Z,73.90
2019-01-25T04:45:40.337Z,67.90
2019-01-25T04:46:40.309Z,68.40
2019-01-25T04:47:40.280Z,69.00
2019-01-25T04:48:40.258Z,72.00
2019-01-25T04:49:40.223Z,66.10
2019-01-25T04:50:40.195Z,67.50
2019-01-25T04:51:40.168Z,72.00
2019-01-25T04:52:40.140Z,72.40
2019-01-25T04:53:40.109Z,74.50
2019-01-25T04:54:40.082Z,73.70
2019-01-25T04:55:40.053Z,64.40
2019-01-25T04:56:40.023Z,60.00
2019-01-25T04:57:39.995Z,60.20
2019-01-25T04:58:39.967Z,56.40
2019-01-25T04:59:39.942Z,59.90
2019-01-25T05:00:39.911Z,55.40
2019-01-25T05:01:39.888Z,57.80
2019-01-25T05:02:39.853Z,58.40
2019-01-25T05:03:39.823Z,60.40
2019-01-25T05:04:39.799Z,61.30
2019-01-25T05:05:39.773Z,58.80
2019-01-25T05:06:39.739Z,61.50
2019-01-25T05:07:39.714Z,77.90
2019-01-25T05:08:39.708Z,83.00
2019-01-25T05:09:39.653Z,87.30
2019-01-25T05:10:39.630Z,84.80
2019-01-25T05:11:39.597Z,77.50
2019-01-25T05:12:39.574Z,82.60
2019-01-25T05:13:39.545Z,83.70
2019-01-25T05:14:39.528Z,88.10
2019-01-25T05:15:39.482Z,88.70
2019-01-25T05:16:39.458Z,83.60
2019-01-25T05:17:39.433Z,83.80
2019-01-25T05:18:39.407Z,77.30
2019-01-25T05:19:39.370Z,75.00
2019-01-25T05:20:39.345Z,76.40
2019-01-25T05:21:39.309Z,73.70
2019-01-25T05:22:39.281Z,76.70
2019-01-25T05:23:39.262Z,72.80
2019-01-25T05:24:39.225Z,77.80
2019-01-25T05:25:39.198Z,77.40
2019-01-25T05:26:39.167Z,78.30
2019-01-25T05:27:39.141Z,83.80
2019-01-25T05:28:39.111Z,81.00
2019-01-25T05:29:39.083Z,81.80
2019-01-25T05:30:39.053Z,81.70
2019-01-25T05:31:39.025Z,84.10
2019-01-25T05:32:38.996Z,81.90
2019-01-25T05:33:38.971Z,83.30
2019-01-25T05:34:38.940Z,85.40
2019-01-25T05:35:38.915Z,89.30
2019-01-25T05:36:38.887Z,89.50
2019-01-25T05:37:38.866Z,87.90
2019-01-25T05:38:38.825Z,90.20
2019-01-25T05:39:38.799Z,93.20
2019-01-25T05:40:38.766Z,96.70
2019-01-25T05:41:38.743Z,92.70
2019-01-25T05:42:38.709Z,91.00
2019-01-25T05:43:38.686Z,99.20
2019-01-25T05:44:38.667Z,94.20
2019-01-25T05:45:38.624Z,92.00
2019-01-25T05:46:38.598Z,95.40
2019-01-25T05:47:38.567Z,98.30
2019-01-25T05:48:38.538Z,97.20
2019-01-25T05:49:38.519Z,95.80
2019-01-25T05:50:38.485Z,100.00
2019-01-25T05:51:38.457Z,99.80
2019-01-25T05:52:38.429Z,98.30
2019-01-25T05:53:38.391Z,98.10
2019-01-25T05:54:38.362Z,98.80
2019-01-25T05:55:38.344Z,99.20
2019-01-25T05:56:38.309Z,96.60
2019-01-25T05:57:38.286Z,99.70
2019-01-25T05:58:38.254Z,98.50
2019-01-25T05:59:38.224Z,102.20
2019-01-25T06:00:38.191Z,102.70
2019-01-25T06:01:38.162Z,94.80
2019-01-25T06:02:38.134Z,96.50
2019-01-25T06:03:38.107Z,102.20
2019-01-25T06:04:38.090Z,94.50
2019-01-25T06:05:38.050Z,95.10
2019-01-25T06:06:38.021Z,96.20
2019-01-25T06:07:37.988Z,95.10
2019-01-25T06:08:43.797Z,94.70
2019-01-25T06:09:37.939Z,95.50
2019-01-25T06:10:37.902Z,96.10
2019-01-25T06:11:37.877Z,93.10
2019-01-25T06:12:37.844Z,89.50
2019-01-25T06:13:37.813Z,94.80
2019-01-25T06:14:37.786Z,89.70
2019-01-25T06:15:37.767Z,90.50
2019-01-25T06:16:37.730Z,87.80
2019-01-25T06:17:37.706Z,89.20
2019-01-25T06:18:37.672Z,88.10
2019-01-25T06:19:37.648Z,81.60
2019-01-25T06:20:37.627Z,85.60
2019-01-25T06:21:37.583Z,84.60
2019-01-25T06:22:37.554Z,81.70
2019-01-25T06:23:37.526Z,79.90
2019-01-25T06:24:37.495Z,82.20
2019-01-25T06:25:37.470Z,81.60
2019-01-25T06:26:37.441Z,85.20
2019-01-25T06:27:37.413Z,80.00
2019-01-25T06:28:37.382Z,84.90
2019-01-25T06:29:37.352Z,80.50
2019-01-25T06:30:37.323Z,84.80
2019-01-25T06:31:37.299Z,76.90
2019-01-25T06:32:37.266Z,74.80
2019-01-25T06:33:37.236Z,75.00
2019-01-25T06:34:37.211Z,75.60
2019-01-25T06:35:37.182Z,71.70
2019-01-25T06:36:37.154Z,73.40
2019-01-25T06:37:37.129Z,72.00
2019-01-25T06:38:37.095Z,68.70
2019-01-25T06:39:37.061Z,70.40
2019-01-25T06:40:37.042Z,66.80
2019-01-25T06:41:44.021Z,68.80
2019-01-25T06:42:36.972Z,68.30
2019-01-25T06:43:36.944Z,64.00
2019-01-25T06:44:36.914Z,67.80
2019-01-25T06:45:36.888Z,65.70
2019-01-25T06:46:36.868Z,64.50
2019-01-25T06:47:36.831Z,61.20
2019-01-25T06:48:36.801Z,58.40
2019-01-25T06:49:36.770Z,59.50
2019-01-25T06:50:36.741Z,59.80
2019-01-25T06:51:36.720Z,59.40
2019-01-25T06:52:36.682Z,58.90
2019-01-25T06:53:36.668Z,58.50
2019-01-25T06:54:36.627Z,57.50
2019-01-25T06:55:36.592Z,58.20
2019-01-25T06:56:36.564Z,58.30
2019-01-25T06:57:36.534Z,57.90
2019-01-25T06:58:36.505Z,60.10
2019-01-25T06:59:36.478Z,62.20
2019-01-25T07:00:36.449Z,59.30
2019-01-25T07:01:36.418Z,58.60
2019-01-25T07:02:36.404Z,60.30
2019-01-25T07:03:36.362Z,61.00
2019-01-25T07:04:36.335Z,57.20
2019-01-25T07:05:36.301Z,56.70
2019-01-25T07:06:36.273Z,53.70
2019-01-25T07:07:36.245Z,60.60
2019-01-25T07:08:36.218Z,56.70
2019-01-25T07:09:36.193Z,56.00
2019-01-25T07:10:36.156Z,58.20
2019-01-25T07:11:42.075Z,59.70
2019-01-25T07:12:36.098Z,58.60
2019-01-25T07:13:36.068Z,55.40
2019-01-25T07:14:36.046Z,62.40
2019-01-25T07:15:36.012Z,66.20
2019-01-25T07:16:35.981Z,59.30
2019-01-25T07:17:35.956Z,62.60
2019-01-25T07:18:35.922Z,61.70
2019-01-25T07:19:35.892Z,58.70
2019-01-25T07:20:35.867Z,58.40
2019-01-25T07:21:35.843Z,59.30
2019-01-25T07:22:35.803Z,58.20
2019-01-25T07:23:35.780Z,56.50
2019-01-25T07:24:35.753Z,60.90
2019-01-25T07:25:35.723Z,60.70
2019-01-25T07:26:35.691Z,61.00
2019-01-25T07:27:35.657Z,59.40
2019-01-25T07:28:35.632Z,59.80
2019-01-25T07:29:35.611Z,59.30
2019-01-25T07:30:35.570Z,59.00
2019-01-25T07:31:35.541Z,60.90
2019-01-25T07:32:35.537Z,60.50
2019-01-25T07:33:35.493Z,61.30
2019-01-25T07:34:35.452Z,58.40
2019-01-25T07:35:35.457Z,64.40
2019-01-25T07:36:35.394Z,65.10
2019-01-25T07:37:35.363Z,63.00
2019-01-25T07:38:35.336Z,63.00
2019-01-25T07:39:35.322Z,60.10
2019-01-25T07:40:35.307Z,68.60
2019-01-25T07:41:35.245Z,107.70
2019-01-25T07:42:35.252Z,74.50
2019-01-25T07:43:35.225Z,63.00
2019-01-25T07:44:35.229Z,64.20
2019-01-25T07:45:35.137Z,63.40
2019-01-25T07:46:35.105Z,58.30
2019-01-25T07:47:35.072Z,67.60
2019-01-25T07:48:35.220Z,67.60
2019-01-25T07:49:35.014Z,67.50
2019-01-25T07:50:34.991Z,67.20
2019-01-25T07:51:34.996Z,62.50
2019-01-25T07:52:34.955Z,60.40
2019-01-25T07:53:34.903Z,66.20
2019-01-25T07:54:34.881Z,64.50
2019-01-25T07:55:34.845Z,67.10
2019-01-25T07:56:34.802Z,63.10
2019-01-25T07:57:34.780Z,61.00
2019-01-25T07:58:34.765Z,60.30
2019-01-25T07:59:34.745Z,63.30
2019-01-25T08:00:34.697Z,61.40
2019-01-25T08:01:34.685Z,61.60
2019-01-25T08:02:34.634Z,68.80
2019-01-25T08:03:34.604Z,61.90
2019-01-25T08:04:34.576Z,59.50
2019-01-25T08:05:34.561Z,62.90
2019-01-25T08:06:34.520Z,62.50
2019-01-25T08:07:34.489Z,62.30
2019-01-25T08:08:34.496Z,62.40
2019-01-25T08:09:34.428Z,62.70
2019-01-25T08:10:34.402Z,64.30
2019-01-25T08:11:34.370Z,63.20
2019-01-25T08:12:34.366Z,65.30
2019-01-25T08:13:34.312Z,64.70
2019-01-25T08:14:34.297Z,64.80
2019-01-25T08:15:34.273Z,62.90
2019-01-25T08:16:34.227Z,64.60
2019-01-25T08:17:34.250Z,63.50
2019-01-25T08:18:34.228Z,65.10
2019-01-25T08:19:34.138Z,64.10
2019-01-25T08:20:34.112Z,62.00
2019-01-25T08:21:36.060Z,63.10
2019-01-25T08:22:34.057Z,63.20
2019-01-25T08:23:34.023Z,59.50
2019-01-25T08:24:33.995Z,64.70
2019-01-25T08:25:33.972Z,64.40
2019-01-25T08:26:33.935Z,61.70
2019-01-25T08:27:33.927Z,59.60
2019-01-25T08:28:33.888Z,62.00
2019-01-25T08:29:33.854Z,65.20
2019-01-25T08:30:33.831Z,61.30
2019-01-25T08:31:33.810Z,58.00
2019-01-25T08:32:33.782Z,61.80
2019-01-25T08:33:33.732Z,61.00
2019-01-25T08:34:33.724Z,62.10
2019-01-25T08:35:33.728Z,59.50
2019-01-25T08:36:33.656Z,60.50
2019-01-25T08:37:33.619Z,63.40
2019-01-25T08:38:33.597Z,57.20
2019-01-25T08:39:33.573Z,60.80
2019-01-25T08:40:33.546Z,59.90
2019-01-25T08:41:33.508Z,61.60
2019-01-25T08:42:33.478Z,58.50
2019-01-25T08:43:33.485Z,63.30
2019-01-25T08:44:33.421Z,58.90
2019-01-25T08:45:33.388Z,60.20
2019-01-25T08:46:33.356Z,59.50
2019-01-25T08:47:33.328Z,60.20
2019-01-25T08:48:33.312Z,57.00
2019-01-25T08:49:33.274Z,60.60
2019-01-25T08:50:33.243Z,64.30
2019-01-25T08:51:33.286Z,61.10
2019-01-25T08:52:33.261Z,64.20
2019-01-25T08:53:33.159Z,59.50
2019-01-25T08:54:33.154Z,61.60
2019-01-25T08:55:33.115Z,57.50
2019-01-25T08:56:33.147Z,59.70
2019-01-25T08:57:33.040Z,62.60
2019-01-25T08:58:33.012Z,62.90
2019-01-25T08:59:32.984Z,60.70
2019-01-25T09:00:32.974Z,59.00
2019-01-25T09:01:32.923Z,63.30
2019-01-25T09:02:32.897Z,59.40
2019-01-25T09:03:32.868Z,63.80
2019-01-25T09:04:32.840Z,63.00
2019-01-25T09:05:32.809Z,59.80
2019-01-25T09:06:32.789Z,60.60
2019-01-25T09:07:32.759Z,59.80
2019-01-25T09:08:32.724Z,57.20
2019-01-25T09:09:32.696Z,57.80
2019-01-25T09:10:32.673Z,58.00
2019-01-25T09:11:32.643Z,59.60
2019-01-25T09:12:32.617Z,59.70
2019-01-25T09:13:32.592Z,58.20
2019-01-25T09:14:32.556Z,61.40
2019-01-25T09:15:32.526Z,61.00
2019-01-25T09:16:32.504Z,60.30
2019-01-25T09:17:32.468Z,62.20
2019-01-25T09:18:32.440Z,63.30
2019-01-25T09:19:32.413Z,62.70
2019-01-25T09:20:32.382Z,56.50
2019-01-25T09:21:32.360Z,56.80
2019-01-25T09:22:32.329Z,62.60
2019-01-25T09:23:32.294Z,59.70
2019-01-25T09:24:32.281Z,62.70
2019-01-25T09:25:32.237Z,59.00
2019-01-25T09:26:32.210Z,59.40
2019-01-25T09:27:32.177Z,58.50
2019-01-25T09:28:32.153Z,61.10
2019-01-25T09:29:32.122Z,56.10
2019-01-25T09:30:32.093Z,61.80
2019-01-25T09:31:32.067Z,59.70
2019-01-25T09:32:32.037Z,62.70
2019-01-25T09:33:32.013Z,59.00
2019-01-25T09:34:31.979Z,63.00
2019-01-25T09:35:31.951Z,58.00
2019-01-25T09:36:31.927Z,60.30
2019-01-25T09:37:31.892Z,59.90
2019-01-25T09:38:31.864Z,60.20
2019-01-25T09:39:31.837Z,62.70
2019-01-25T09:40:31.808Z,58.90
2019-01-25T09:41:31.778Z,63.80
2019-01-25T09:42:31.758Z,62.60
2019-01-25T09:43:31.721Z,61.70
2019-01-25T09:44:31.695Z,60.10
2019-01-25T09:45:31.664Z,60.40
2019-01-25T09:46:31.636Z,65.80
2019-01-25T09:47:31.606Z,58.20
2019-01-25T09:48:31.580Z,54.90
2019-01-25T09:49:31.547Z,57.70
2019-01-25T09:50:31.522Z,61.40
2019-01-25T09:51:31.493Z,62.00
2019-01-25T09:52:31.464Z,59.10
2019-01-25T09:53:31.434Z,56.90
2019-01-25T09:54:31.414Z,58.60
2019-01-25T09:55:31.381Z,55.90
2019-01-25T09:56:31.348Z,57.00
2019-01-25T09:57:31.321Z,62.10
2019-01-25T09:58:31.297Z,61.90
2019-01-25T09:59:31.270Z,65.30
2019-01-25T10:00:31.239Z,61.30
2019-01-25T10:01:31.231Z,58.20
2019-01-25T10:02:31.217Z,58.70
2019-01-25T10:03:31.156Z,56.20
2019-01-25T10:04:31.123Z,56.10
2019-01-25T10:05:31.095Z,57.50
2019-01-25T10:06:31.068Z,54.30
2019-01-25T10:07:31.035Z,53.20
2019-01-25T10:08:31.019Z,59.70
2019-01-25T10:09:30.982Z,56.10
2019-01-25T10:10:30.950Z,55.30
2019-01-25T10:11:30.921Z,56.90
2019-01-25T10:12:36.054Z,61.00
2019-01-25T10:13:30.866Z,58.10
2019-01-25T10:14:30.838Z,57.00
2019-01-25T10:15:30.810Z,59.50
2019-01-25T10:16:30.781Z,59.60
2019-01-25T10:17:30.754Z,59.90
2019-01-25T10:18:30.730Z,57.80
2019-01-25T10:19:30.695Z,57.10
2019-01-25T10:20:30.667Z,57.50
2019-01-25T10:21:30.635Z,60.60
2019-01-25T10:22:30.608Z,57.10
2019-01-25T10:23:30.579Z,59.60
2019-01-25T10:24:30.559Z,56.10
2019-01-25T10:25:30.523Z,61.10
2019-01-25T10:26:30.503Z,61.60
2019-01-25T10:27:30.466Z,60.50
2019-01-25T10:28:30.443Z,55.50
2019-01-25T10:29:30.409Z,62.20
2019-01-25T10:30:30.381Z,63.40
2019-01-25T10:31:30.354Z,61.70
2019-01-25T10:32:30.325Z,58.40
2019-01-25T10:33:30.296Z,60.90
2019-01-25T10:34:30.267Z,59.40
2019-01-25T10:35:31.600Z,63.30
2019-01-25T10:36:30.211Z,64.30
2019-01-25T10:37:30.187Z,59.90
2019-01-25T10:38:30.156Z,57.30
2019-01-25T10:39:30.134Z,62.30
2019-01-25T10:40:30.103Z,56.80
2019-01-25T10:41:30.071Z,63.50
2019-01-25T10:42:30.044Z,66.60
2019-01-25T10:43:30.014Z,66.00
2019-01-25T10:44:29.988Z,61.40
2019-01-25T10:45:29.974Z,63.90
2019-01-25T10:46:29.929Z,65.30
2019-01-25T10:47:29.901Z,66.60
2019-01-25T10:48:29.877Z,62.30
2019-01-25T10:49:29.845Z,60.40
2019-01-25T10:50:29.820Z,64.10
2019-01-25T10:51:29.800Z,64.90
2019-01-25T10:52:29.772Z,67.00
2019-01-25T10:53:29.736Z,64.30
2019-01-25T10:54:29.706Z,78.40
2019-01-25T10:55:29.678Z,65.20
2019-01-25T10:56:29.656Z,65.60
2019-01-25T10:57:29.615Z,63.60
2019-01-25T10:58:29.592Z,65.70
2019-01-25T10:59:29.561Z,62.60
2019-01-25T11:00:29.535Z,66.70
2019-01-25T11:01:29.505Z,62.70
2019-01-25T11:02:29.477Z,63.80
2019-01-25T11:03:29.451Z,65.30
2019-01-25T11:04:29.421Z,63.30
2019-01-25T11:05:29.393Z,57.50
2019-01-25T11:06:29.367Z,62.20
2019-01-25T11:07:29.335Z,65.00
2019-01-25T11:08:29.308Z,63.10
2019-01-25T11:09:29.281Z,61.80
2019-01-25T11:10:29.248Z,67.50
2019-01-25T11:11:29.222Z,64.30
2019-01-25T11:12:29.199Z,64.10
2019-01-25T11:13:29.174Z,68.20
2019-01-25T11:14:29.138Z,71.10
2019-01-25T11:15:29.108Z,74.00
2019-01-25T11:16:29.094Z,68.10
2019-01-25T11:17:36.248Z,64.90
2019-01-25T11:18:29.029Z,67.50
2019-01-25T11:19:28.996Z,70.60
2019-01-25T11:20:28.972Z,72.30
2019-01-25T11:21:28.946Z,73.50
2019-01-25T11:22:28.915Z,72.50
2019-01-25T11:23:28.893Z,72.50
2019-01-25T11:24:28.855Z,76.50
2019-01-25T11:25:28.838Z,73.20
2019-01-25T11:26:28.803Z,74.90
2019-01-25T11:27:29.389Z,77.30
2019-01-25T11:28:28.746Z,72.30
2019-01-25T11:29:28.715Z,78.70
2019-01-25T11:30:28.696Z,70.30
2019-01-25T11:31:28.658Z,73.00
2019-01-25T11:32:28.632Z,73.40
2019-01-25T11:33:28.602Z,85.60
2019-01-25T11:34:33.024Z,81.60
2019-01-25T11:35:28.549Z,77.40
2019-01-25T11:36:28.518Z,80.80
2019-01-25T11:37:28.492Z,74.30
2019-01-25T11:38:28.467Z,77.90
2019-01-25T11:39:28.435Z,78.40
2019-01-25T11:40:28.403Z,77.70
2019-01-25T11:41:28.374Z,81.00
2019-01-25T11:42:28.346Z,76.10
2019-01-25T11:43:28.320Z,80.80
2019-01-25T11:44:28.296Z,89.10
2019-01-25T11:45:28.262Z,87.30
2019-01-25T11:46:28.251Z,85.70
2019-01-25T11:47:28.211Z,87.20
2019-01-25T11:48:28.178Z,87.00
2019-01-25T11:49:28.149Z,82.40
2019-01-25T11:50:28.122Z,87.00
2019-01-25T11:51:28.102Z,88.40
2019-01-25T11:52:28.063Z,90.10
2019-01-25T11:53:28.036Z,86.00
2019-01-25T11:54:28.014Z,82.60
2019-01-25T11:55:27.981Z,87.80
2019-01-25T11:56:27.953Z,91.80
2019-01-25T11:57:27.922Z,87.90
2019-01-25T11:58:27.897Z,86.30
2019-01-25T11:59:27.878Z,92.20
2019-01-25T12:00:27.846Z,90.80
2019-01-25T12:01:27.815Z,86.00
2019-01-25T12:02:27.794Z,92.80
2019-01-25T12:03:27.756Z,91.20
2019-01-25T12:04:27.730Z,92.40
2019-01-25T12:05:27.702Z,97.10
2019-01-25T12:06:27.673Z,100.60
2019-01-25T12:07:27.656Z,99.20
2019-01-25T12:08:27.614Z,90.40
2019-01-25T12:09:27.586Z,90.10
2019-01-25T12:10:27.569Z,93.10
2019-01-25T12:11:27.531Z,94.40
2019-01-25T12:12:27.504Z,97.80
2019-01-25T12:13:27.477Z,99.50
2019-01-25T12:14:27.444Z,96.10
2019-01-25T12:15:27.417Z,91.90
2019-01-25T12:16:27.388Z,102.30
2019-01-25T12:17:27.368Z,101.60
2019-01-25T12:18:27.430Z,97.10
2019-01-25T12:19:27.304Z,101.80
2019-01-25T12:20:27.276Z,100.90
2019-01-25T12:21:27.260Z,95.90
2019-01-25T12:22:27.300Z,103.90
2019-01-25T12:23:27.197Z,90.60
2019-01-25T12:24:27.167Z,98.90
2019-01-25T12:25:27.142Z,98.10
2019-01-25T12:26:27.106Z,100.10
2019-01-25T12:27:27.080Z,102.00
2019-01-25T12:28:27.052Z,98.60
2019-01-25T12:29:27.103Z,100.90
2019-01-25T12:30:26.995Z,110.10
2019-01-25T12:31:26.977Z,102.30
2019-01-25T12:32:26.940Z,103.90
2019-01-25T12:33:26.911Z,107.80
2019-01-25T12:34:26.889Z,103.70
2019-01-25T12:35:26.855Z,109.20
2019-01-25T12:36:26.828Z,117.60
2019-01-25T12:37:26.804Z,118.10
2019-01-25T12:38:26.777Z,117.90
2019-01-25T12:39:26.751Z,119.30
2019-01-25T12:40:26.716Z,125.90
2019-01-25T12:41:26.687Z,123.50
2019-01-25T12:42:26.659Z,131.00
2019-01-25T12:43:26.635Z,125.10
2019-01-25T12:44:26.603Z,123.30
2019-01-25T12:45:26.573Z,134.60
2019-01-25T12:46:26.548Z,131.10
2019-01-25T12:47:26.519Z,136.20
2019-01-25T12:48:26.491Z,137.60
2019-01-25T12:49:26.462Z,134.80
2019-01-25T12:50:26.441Z,134.60